Nearby METAR Reports

 

KSJC - San Jose, California, USA
Distance from station: NE 9mi, 14km
Updated: Sun, 12-Jul-2020 1:53pm PDT
Clear
Clear
 Wind from NNW
Wind: NNW 9 mph , 15 km/h
Temperature: 88°F , 31°C
Dew Point: 52°F , 11°C
Humidity: 29%
Barometer: 29.86 inHg , 1011.2 hPa
Clouds: Clear
Visibility: 10 miles , 16 km
2020/07/12 20:53 KSJC 122053Z 34008KT 10SM CLR 31/11 A2986 RMK AO2 SLP112 T03110106 58020
KNUQ - Moffett Nas/Mtn, California, USA
Distance from station: N 9mi, 14km
Updated: Sun, 12-Jul-2020 6:55am PDT
NOT Current
Clear
Clear
 Wind from calm
Wind: Calm
Temperature: 61°F , 16°C
Dew Point: 55°F , 13°C
Humidity: 83%
Barometer: 29.95 inHg , 1014.2 hPa
Clouds: Clear
Visibility: 10 miles , 16 km
2020/07/12 13:55 KNUQ 121355Z AUTO 00000KT 10SM CLR 16/13 A2995 RMK AO2
 
KPAO - Palo Alto, California, USA
Distance from station: NNW 14mi, 23km
Updated: Sun, 12-Jul-2020 1:47pm PDT
Clear
Clear
 Wind from NW
Wind: NW 13 mph , 20 km/h
Temperature: 81°F , 27°C
Heat Index: 81°F , 27°C
Dew Point: 55°F , 13°C
Humidity: 42%
Barometer: 29.88 inHg , 1011.9 hPa
Clouds: Clear
Visibility: 10 miles , 16 km
2020/07/12 20:47 KPAO 122047Z 32011KT 10SM SKC 27/13 A2988
KRHV - San Jose/Reid, California, USA
Distance from station: ENE 12mi, 19km
Updated: Sun, 12-Jul-2020 1:47pm PDT
Clear
Clear
 Wind from WNW
Wind: WNW 8 mph , 13 km/h
Temperature: 91°F , 33°C
Dew Point: 48°F , 9°C
Humidity: 23%
Barometer: 29.87 inHg , 1011.5 hPa
Clouds: Clear
Visibility: 10 miles , 16 km
2020/07/12 20:47 KRHV 122047Z 29007KT 10SM SKC 33/09 A2987
 
KOAK - Oakland, California, USA
Distance from station: NNW 31mi, 50km
Updated: Sun, 12-Jul-2020 1:53pm PDT
Clear
Clear
 Wind from WNW
Wind: WNW 15 mph , 24 km/h
Temperature: 79°F , 26°C
Dew Point: 54°F , 12°C
Humidity: 42%
Barometer: 29.89 inHg , 1012.2 hPa
Clouds: Clear
Visibility: 10 miles , 16 km
2020/07/12 20:53 KOAK 122053Z 30013KT 10SM CLR 26/12 A2989 RMK AO2 SLP121 T02610122 58016
KSQL - San Carlos Airpo, California, USA
Distance from station: NW 21mi, 34km
Updated: Sun, 12-Jul-2020 1:50pm PDT
Clear
Clear
 Wind from NW
Wind: NW 10 mph , 17 km/h
Temperature: 81°F , 27°C
Dew Point: 54°F , 12°C
Humidity: 39%
Barometer: 29.89 inHg , 1012.2 hPa
Clouds: Clear
Visibility: 10 miles , 16 km
2020/07/12 20:50 KSQL 122050Z 32009KT 10SM SKC 27/12 A2989
 
KSFO - San Francisco, California, USA
Distance from station: NW 30mi, 49km
Updated: Sun, 12-Jul-2020 1:56pm PDT
Clear
Clear
 Wind from NW
Wind: NW 20 mph , 31 km/h
Temperature: 73°F , 23°C
Dew Point: 52°F , 11°C
Humidity: 47%
Barometer: 29.88 inHg , 1011.9 hPa
Clouds: Clear
Visibility: 10 miles , 16 km
2020/07/12 20:56 KSFO 122056Z 31017KT 10SM CLR 23/11 A2988 RMK AO2 SLP117 T02330106 58018
KE16 - San Martin, California, USA
Distance from station: ESE 27mi, 43km
Updated: Sun, 12-Jul-2020 1:55pm PDT
Clear
Clear
 Wind from SSE
Wind: SSE 5 mph , 7 km/h
Temperature: 99°F , 37°C
Dew Point: 36°F , 2°C
Humidity: 11%
Barometer: 29.87 inHg , 1011.5 hPa
Clouds: Clear
Visibility: 10 miles , 16 km
2020/07/12 20:55 KE16 122055Z AUTO 16004KT 10SM CLR 37/02 A2987 RMK AO2
 
KWVI - Watsonville, California, USA
Distance from station: SSE 27mi, 44km
Updated: Sun, 12-Jul-2020 1:53pm PDT
Clear
Clear
 Wind from SW
Wind: SW 8 mph , 13 km/h
Temperature: 75°F , 24°C
Dew Point: 55°F , 13°C
Humidity: 50%
Barometer: 29.91 inHg , 1012.9 hPa
Clouds: Clear
Visibility: 10 miles , 16 km
2020/07/12 20:53 KWVI 122053Z AUTO 22007KT 10SM CLR 24/13 A2991 RMK AO2 SLP128 T02440128 58014
KHAF - Half Moon Bay, California, USA
Distance from station: WNW 31mi, 50km
Updated: Sun, 12-Jul-2020 2:15pm PDT
Haze, Clear
Haze, Clear
 Wind from NW
Wind: NW 9 mph , 15 km/h
Temperature: 61°F , 16°C
Dew Point: 54°F , 12°C
Humidity: 77%
Barometer: 29.94 inHg , 1013.9 hPa
Summary: Haze
Clouds: Clear
Visibility: 5 miles , 8 km
2020/07/12 21:15 KHAF 122115Z AUTO 31008KT 5SM HZ CLR 16/12 A2994 RMK AO2
 
KHWD - Hayward, California, USA
Distance from station: N 28mi, 44km
Updated: Sun, 12-Jul-2020 1:54pm PDT
Clear
Clear
 Wind from WNW
Wind: WNW 10 mph , 17 km/h
Temperature: 82°F , 28°C
Dew Point: 54°F , 12°C
Humidity: 37%
Barometer: 29.88 inHg , 1011.9 hPa
Clouds: Clear
Visibility: 10 miles , 16 km
2020/07/12 20:54 KHWD 122054Z 29009KT 10SM CLR 28/12 A2988 RMK AO2 SLP125 T02780122 58018
KLVK - Livermore, California, USA
Distance from station: NNE 31mi, 51km
Updated: Sun, 12-Jul-2020 1:53pm PDT
Clear
Clear
 Wind from WNW
Wind: WNW 9 mph , 15 km/h, Gust: 16 mph , 26 km/h
Temperature: 100°F , 38°C
Dew Point: 28°F , -2°C
Humidity: 8%
Barometer: 29.84 inHg , 1010.5 hPa
Clouds: Clear
Visibility: 10 miles , 16 km
2020/07/12 20:53 KLVK 122053Z 29008G14KT 10SM CLR 38/M02 A2984 RMK AO2 SLP100 T03831017 58021